Terminal Aerodrome Forecast
Issued by NWS Upton, NY

Home | Current Version | Previous Version | Text Only | Print | Product List | Glossary On
Versions: 1 2 3 4 5 6 7 8 9 10 11 12 13 14 15 16 17 18 19 20 21 22 23 24 25 26 27 28 29
000
FTUS41 KOKX 090232 AAA
TAFJFK
TAF AMD
KJFK 090232Z 0903/1006 04008KT P6SM -SN BKN015 OVC040
     FM090400 05007KT P6SM SCT008 OVC015
     FM091100 04011KT P6SM SCT008 OVC012
     FM091500 03013KT P6SM OVC015
     FM092200 02010KT P6SM OVC015
     FM100100 04008KT 2SM -SN BKN007 OVC012=

USA.gov is the U.S. government's official web portal to all federal, state and local government web resources and services.